sensor_id;sensor_type;location;lat;lon;timestamp;temperature;humidity
16182;DHT22;8197;51.664;7.114;2023-09-08T00:04:15;22.70;65.50
16182;DHT22;8197;51.664;7.114;2023-09-08T00:09:18;22.60;66.20
16182;DHT22;8197;51.664;7.114;2023-09-08T00:14:22;22.60;66.60
16182;DHT22;8197;51.664;7.114;2023-09-08T00:19:25;22.60;67.10
16182;DHT22;8197;51.664;7.114;2023-09-08T00:24:28;22.60;66.20
16182;DHT22;8197;51.664;7.114;2023-09-08T00:29:32;22.50;66.30
16182;DHT22;8197;51.664;7.114;2023-09-08T00:34:35;22.50;66.30
16182;DHT22;8197;51.664;7.114;2023-09-08T00:39:38;22.50;66.80
16182;DHT22;8197;51.664;7.114;2023-09-08T00:44:43;22.40;66.40
16182;DHT22;8197;51.664;7.114;2023-09-08T00:49:46;22.60;66.80
16182;DHT22;8197;51.664;7.114;2023-09-08T00:54:50;22.80;67.10
16182;DHT22;8197;51.664;7.114;2023-09-08T00:59:55;22.90;65.40
16182;DHT22;8197;51.664;7.114;2023-09-08T01:04:58;22.60;65.90
16182;DHT22;8197;51.664;7.114;2023-09-08T01:10:02;22.60;66.40
16182;DHT22;8197;51.664;7.114;2023-09-08T01:15:09;22.50;66.20
16182;DHT22;8197;51.664;7.114;2023-09-08T01:20:16;22.40;66.80
16182;DHT22;8197;51.664;7.114;2023-09-08T01:25:25;22.30;66.90
16182;DHT22;8197;51.664;7.114;2023-09-08T01:30:29;22.30;66.90
16182;DHT22;8197;51.664;7.114;2023-09-08T01:35:34;22.20;67.30
16182;DHT22;8197;51.664;7.114;2023-09-08T01:40:39;22.20;67.10
16182;DHT22;8197;51.664;7.114;2023-09-08T01:45:42;22.20;67.30
16182;DHT22;8197;51.664;7.114;2023-09-08T01:50:46;22.10;68.10
16182;DHT22;8197;51.664;7.114;2023-09-08T01:55:51;22.40;68.30
16182;DHT22;8197;51.664;7.114;2023-09-08T02:00:54;22.70;67.50
16182;DHT22;8197;51.664;7.114;2023-09-08T02:06:02;22.70;65.70
16182;DHT22;8197;51.664;7.114;2023-09-08T02:11:06;22.50;66.20
16182;DHT22;8197;51.664;7.114;2023-09-08T02:16:13;22.70;67.10
16182;DHT22;8197;51.664;7.114;2023-09-08T02:21:16;22.60;65.80
16182;DHT22;8197;51.664;7.114;2023-09-08T02:26:20;22.50;65.80
16182;DHT22;8197;51.664;7.114;2023-09-08T02:31:23;22.20;66.80
16182;DHT22;8197;51.664;7.114;2023-09-08T02:36:26;22.00;67.60
16182;DHT22;8197;51.664;7.114;2023-09-08T02:41:30;22.30;68.20
16182;DHT22;8197;51.664;7.114;2023-09-08T02:46:33;22.50;66.40
16182;DHT22;8197;51.664;7.114;2023-09-08T02:51:36;22.20;67.30
16182;DHT22;8197;51.664;7.114;2023-09-08T02:56:40;21.90;68.00
16182;DHT22;8197;51.664;7.114;2023-09-08T03:01:44;21.60;68.40
16182;DHT22;8197;51.664;7.114;2023-09-08T03:06:47;21.50;69.00
16182;DHT22;8197;51.664;7.114;2023-09-08T03:11:51;21.30;69.40
16182;DHT22;8197;51.664;7.114;2023-09-08T03:16:54;21.30;69.60
16182;DHT22;8197;51.664;7.114;2023-09-08T03:21:57;21.20;69.90
16182;DHT22;8197;51.664;7.114;2023-09-08T03:27:02;21.20;69.90
16182;DHT22;8197;51.664;7.114;2023-09-08T03:32:05;21.20;70.50
16182;DHT22;8197;51.664;7.114;2023-09-08T03:37:08;21.20;70.50
16182;DHT22;8197;51.664;7.114;2023-09-08T03:42:13;21.20;70.20
16182;DHT22;8197;51.664;7.114;2023-09-08T03:47:15;21.10;70.40
16182;DHT22;8197;51.664;7.114;2023-09-08T03:52:18;21.10;70.20
16182;DHT22;8197;51.664;7.114;2023-09-08T03:57:23;21.10;70.80
16182;DHT22;8197;51.664;7.114;2023-09-08T04:02:25;21.00;70.90
16182;DHT22;8197;51.664;7.114;2023-09-08T04:07:28;21.00;70.70
16182;DHT22;8197;51.664;7.114;2023-09-08T04:12:33;21.10;70.90
16182;DHT22;8197;51.664;7.114;2023-09-08T04:17:36;21.10;71.00
16182;DHT22;8197;51.664;7.114;2023-09-08T04:22:39;21.10;70.80
16182;DHT22;8197;51.664;7.114;2023-09-08T04:27:43;21.00;70.60
16182;DHT22;8197;51.664;7.114;2023-09-08T04:32:47;21.00;70.80
16182;DHT22;8197;51.664;7.114;2023-09-08T04:37:50;21.00;70.70
16182;DHT22;8197;51.664;7.114;2023-09-08T04:42:54;21.00;70.70
16182;DHT22;8197;51.664;7.114;2023-09-08T04:47:57;21.00;70.70
16182;DHT22;8197;51.664;7.114;2023-09-08T04:53:00;21.00;70.70
16182;DHT22;8197;51.664;7.114;2023-09-08T04:58:04;21.00;70.50
16182;DHT22;8197;51.664;7.114;2023-09-08T05:03:07;20.90;70.80
16182;DHT22;8197;51.664;7.114;2023-09-08T05:08:10;20.90;70.70
16182;DHT22;8197;51.664;7.114;2023-09-08T05:13:17;20.90;70.80
16182;DHT22;8197;51.664;7.114;2023-09-08T05:18:32;20.90;71.00
16182;DHT22;8197;51.664;7.114;2023-09-08T05:23:35;20.80;71.10
16182;DHT22;8197;51.664;7.114;2023-09-08T05:28:39;20.80;71.20
16182;DHT22;8197;51.664;7.114;2023-09-08T05:33:44;20.80;71.60
16182;DHT22;8197;51.664;7.114;2023-09-08T05:38:47;20.80;71.80
16182;DHT22;8197;51.664;7.114;2023-09-08T05:43:52;20.90;71.30
16182;DHT22;8197;51.664;7.114;2023-09-08T05:48:55;20.90;71.30
16182;DHT22;8197;51.664;7.114;2023-09-08T05:53:59;20.80;71.50
16182;DHT22;8197;51.664;7.114;2023-09-08T05:59:03;20.80;72.10
16182;DHT22;8197;51.664;7.114;2023-09-08T06:04:06;20.80;72.00
16182;DHT22;8197;51.664;7.114;2023-09-08T06:09:09;20.90;71.50
16182;DHT22;8197;51.664;7.114;2023-09-08T06:14:15;21.00;71.60
16182;DHT22;8197;51.664;7.114;2023-09-08T06:19:18;21.00;71.40
16182;DHT22;8197;51.664;7.114;2023-09-08T06:24:21;21.00;70.90
16182;DHT22;8197;51.664;7.114;2023-09-08T06:29:25;21.10;71.10
16182;DHT22;8197;51.664;7.114;2023-09-08T06:34:28;21.10;71.30
16182;DHT22;8197;51.664;7.114;2023-09-08T06:39:31;21.10;71.40
16182;DHT22;8197;51.664;7.114;2023-09-08T06:44:36;21.10;71.70
16182;DHT22;8197;51.664;7.114;2023-09-08T06:49:41;21.10;71.30
16182;DHT22;8197;51.664;7.114;2023-09-08T06:54:44;21.20;71.60
16182;DHT22;8197;51.664;7.114;2023-09-08T06:59:49;21.20;71.50
16182;DHT22;8197;51.664;7.114;2023-09-08T07:04:53;21.30;71.50
16182;DHT22;8197;51.664;7.114;2023-09-08T07:09:56;21.40;71.20
16182;DHT22;8197;51.664;7.114;2023-09-08T07:15:00;21.50;71.30
16182;DHT22;8197;51.664;7.114;2023-09-08T07:20:04;21.60;70.90
16182;DHT22;8197;51.664;7.114;2023-09-08T07:25:08;21.70;70.20
16182;DHT22;8197;51.664;7.114;2023-09-08T07:30:13;21.80;70.00
16182;DHT22;8197;51.664;7.114;2023-09-08T07:35:16;21.90;69.10
16182;DHT22;8197;51.664;7.114;2023-09-08T07:40:23;22.10;68.90
16182;DHT22;8197;51.664;7.114;2023-09-08T07:45:28;22.20;68.30
16182;DHT22;8197;51.664;7.114;2023-09-08T07:50:31;22.20;68.70
16182;DHT22;8197;51.664;7.114;2023-09-08T07:55:34;22.30;68.80
16182;DHT22;8197;51.664;7.114;2023-09-08T08:00:38;22.40;69.00
16182;DHT22;8197;51.664;7.114;2023-09-08T08:05:41;22.40;68.80
16182;DHT22;8197;51.664;7.114;2023-09-08T08:10:44;22.50;69.50
16182;DHT22;8197;51.664;7.114;2023-09-08T08:15:48;22.60;68.50
16182;DHT22;8197;51.664;7.114;2023-09-08T08:20:51;22.70;67.80
16182;DHT22;8197;51.664;7.114;2023-09-08T08:25:56;22.80;68.20
16182;DHT22;8197;51.664;7.114;2023-09-08T08:31:01;23.00;66.70
16182;DHT22;8197;51.664;7.114;2023-09-08T08:36:07;23.40;65.50
16182;DHT22;8197;51.664;7.114;2023-09-08T08:41:11;23.70;64.50
16182;DHT22;8197;51.664;7.114;2023-09-08T08:46:16;24.10;63.20
16182;DHT22;8197;51.664;7.114;2023-09-08T08:51:23;24.40;61.70
16182;DHT22;8197;51.664;7.114;2023-09-08T08:56:27;24.70;60.70
16182;DHT22;8197;51.664;7.114;2023-09-08T09:01:31;24.90;59.90
16182;DHT22;8197;51.664;7.114;2023-09-08T09:06:35;24.90;59.90
16182;DHT22;8197;51.664;7.114;2023-09-08T09:11:39;25.00;60.00
16182;DHT22;8197;51.664;7.114;2023-09-08T09:16:44;25.10;59.50
16182;DHT22;8197;51.664;7.114;2023-09-08T09:21:48;25.20;59.50
16182;DHT22;8197;51.664;7.114;2023-09-08T09:26:52;25.20;59.30
16182;DHT22;8197;51.664;7.114;2023-09-08T09:32:01;25.40;58.90
16182;DHT22;8197;51.664;7.114;2023-09-08T09:37:05;25.80;57.90
16182;DHT22;8197;51.664;7.114;2023-09-08T09:42:08;25.80;58.00
16182;DHT22;8197;51.664;7.114;2023-09-08T09:47:13;25.70;58.00
16182;DHT22;8197;51.664;7.114;2023-09-08T09:52:21;25.80;58.20
16182;DHT22;8197;51.664;7.114;2023-09-08T09:57:25;25.70;58.20
16182;DHT22;8197;51.664;7.114;2023-09-08T10:02:30;25.40;59.00
16182;DHT22;8197;51.664;7.114;2023-09-08T10:07:34;25.50;59.60
16182;DHT22;8197;51.664;7.114;2023-09-08T10:12:37;25.40;59.10
16182;DHT22;8197;51.664;7.114;2023-09-08T10:17:44;25.20;59.60
16182;DHT22;8197;51.664;7.114;2023-09-08T10:22:52;25.40;59.40
16182;DHT22;8197;51.664;7.114;2023-09-08T10:27:55;25.40;59.20
16182;DHT22;8197;51.664;7.114;2023-09-08T10:33:00;25.70;58.30
16182;DHT22;8197;51.664;7.114;2023-09-08T10:38:23;25.70;58.50
16182;DHT22;8197;51.664;7.114;2023-09-08T10:43:26;25.70;58.40
16182;DHT22;8197;51.664;7.114;2023-09-08T10:48:40;25.70;58.10
16182;DHT22;8197;51.664;7.114;2023-09-08T10:53:47;25.60;58.40
16182;DHT22;8197;51.664;7.114;2023-09-08T10:58:51;25.60;58.30
16182;DHT22;8197;51.664;7.114;2023-09-08T11:03:57;25.70;57.90
16182;DHT22;8197;51.664;7.114;2023-09-08T11:09:07;25.80;57.30
16182;DHT22;8197;51.664;7.114;2023-09-08T11:14:10;25.80;57.40
16182;DHT22;8197;51.664;7.114;2023-09-08T11:19:14;26.00;56.90
16182;DHT22;8197;51.664;7.114;2023-09-08T11:24:17;26.30;55.60
16182;DHT22;8197;51.664;7.114;2023-09-08T11:29:20;26.20;55.80
16182;DHT22;8197;51.664;7.114;2023-09-08T11:34:25;26.10;55.90
16182;DHT22;8197;51.664;7.114;2023-09-08T11:39:28;26.10;55.50
16182;DHT22;8197;51.664;7.114;2023-09-08T11:44:31;25.90;56.20
16182;DHT22;8197;51.664;7.114;2023-09-08T11:49:36;25.90;56.80
16182;DHT22;8197;51.664;7.114;2023-09-08T11:54:40;26.10;55.40
16182;DHT22;8197;51.664;7.114;2023-09-08T12:00:01;26.00;55.70
16182;DHT22;8197;51.664;7.114;2023-09-08T12:05:12;25.90;55.60
16182;DHT22;8197;51.664;7.114;2023-09-08T12:10:16;26.10;55.30
16182;DHT22;8197;51.664;7.114;2023-09-08T12:15:32;26.30;54.20
16182;DHT22;8197;51.664;7.114;2023-09-08T12:20:38;26.30;54.50
16182;DHT22;8197;51.664;7.114;2023-09-08T12:25:44;26.30;54.10
16182;DHT22;8197;51.664;7.114;2023-09-08T12:30:48;26.40;53.80
16182;DHT22;8197;51.664;7.114;2023-09-08T12:35:53;26.50;53.40
16182;DHT22;8197;51.664;7.114;2023-09-08T12:40:56;26.40;53.00
16182;DHT22;8197;51.664;7.114;2023-09-08T12:45:59;26.70;51.60
16182;DHT22;8197;51.664;7.114;2023-09-08T12:51:03;26.50;53.00
16182;DHT22;8197;51.664;7.114;2023-09-08T12:56:06;26.30;52.30
16182;DHT22;8197;51.664;7.114;2023-09-08T13:01:09;26.10;53.10
16182;DHT22;8197;51.664;7.114;2023-09-08T13:06:13;26.00;52.10
16182;DHT22;8197;51.664;7.114;2023-09-08T13:11:16;26.30;52.20
16182;DHT22;8197;51.664;7.114;2023-09-08T13:16:19;26.70;50.60
16182;DHT22;8197;51.664;7.114;2023-09-08T13:21:24;27.10;49.90
16182;DHT22;8197;51.664;7.114;2023-09-08T13:26:26;27.20;49.90
16182;DHT22;8197;51.664;7.114;2023-09-08T13:31:29;27.30;49.50
16182;DHT22;8197;51.664;7.114;2023-09-08T13:36:34;27.30;49.60
16182;DHT22;8197;51.664;7.114;2023-09-08T13:41:47;27.30;49.70
16182;DHT22;8197;51.664;7.114;2023-09-08T13:46:52;27.20;50.00
16182;DHT22;8197;51.664;7.114;2023-09-08T13:51:58;27.50;48.20
16182;DHT22;8197;51.664;7.114;2023-09-08T13:57:05;27.50;48.90
16182;DHT22;8197;51.664;7.114;2023-09-08T14:02:09;27.40;49.20
16182;DHT22;8197;51.664;7.114;2023-09-08T14:07:17;27.30;49.80
16182;DHT22;8197;51.664;7.114;2023-09-08T14:12:24;27.10;50.30
16182;DHT22;8197;51.664;7.114;2023-09-08T14:17:36;26.90;50.90
16182;DHT22;8197;51.664;7.114;2023-09-08T14:22:40;27.10;50.50
16182;DHT22;8197;51.664;7.114;2023-09-08T14:27:43;26.90;51.00
16182;DHT22;8197;51.664;7.114;2023-09-08T14:32:46;26.80;51.50
16182;DHT22;8197;51.664;7.114;2023-09-08T14:37:50;26.90;51.00
16182;DHT22;8197;51.664;7.114;2023-09-08T14:42:53;27.00;51.00
16182;DHT22;8197;51.664;7.114;2023-09-08T14:47:56;26.90;51.30
16182;DHT22;8197;51.664;7.114;2023-09-08T14:53:04;26.90;51.40
16182;DHT22;8197;51.664;7.114;2023-09-08T14:58:08;26.90;51.40
16182;DHT22;8197;51.664;7.114;2023-09-08T15:03:12;27.00;50.90
16182;DHT22;8197;51.664;7.114;2023-09-08T15:08:16;26.80;51.50
16182;DHT22;8197;51.664;7.114;2023-09-08T15:13:19;26.80;51.50
16182;DHT22;8197;51.664;7.114;2023-09-08T15:18:32;26.70;51.70
16182;DHT22;8197;51.664;7.114;2023-09-08T15:23:36;26.70;52.10
16182;DHT22;8197;51.664;7.114;2023-09-08T15:28:39;26.90;51.40
16182;DHT22;8197;51.664;7.114;2023-09-08T15:33:42;27.00;51.00
16182;DHT22;8197;51.664;7.114;2023-09-08T15:38:46;26.90;51.40
16182;DHT22;8197;51.664;7.114;2023-09-08T15:43:51;26.80;51.80
16182;DHT22;8197;51.664;7.114;2023-09-08T15:48:54;26.80;52.10
16182;DHT22;8197;51.664;7.114;2023-09-08T15:53:58;26.70;52.00
16182;DHT22;8197;51.664;7.114;2023-09-08T15:59:01;26.80;52.10
16182;DHT22;8197;51.664;7.114;2023-09-08T16:04:04;26.70;52.60
16182;DHT22;8197;51.664;7.114;2023-09-08T16:09:12;26.70;52.90
16182;DHT22;8197;51.664;7.114;2023-09-08T16:14:15;26.70;53.10
16182;DHT22;8197;51.664;7.114;2023-09-08T16:19:18;26.70;53.50
16182;DHT22;8197;51.664;7.114;2023-09-08T16:24:22;26.70;53.30
16182;DHT22;8197;51.664;7.114;2023-09-08T16:29:25;26.70;53.40
16182;DHT22;8197;51.664;7.114;2023-09-08T16:34:28;26.60;54.00
16182;DHT22;8197;51.664;7.114;2023-09-08T16:39:33;26.60;55.00
16182;DHT22;8197;51.664;7.114;2023-09-08T16:44:36;26.60;55.70
16182;DHT22;8197;51.664;7.114;2023-09-08T16:49:39;26.50;56.00
16182;DHT22;8197;51.664;7.114;2023-09-08T16:54:43;26.40;56.50
16182;DHT22;8197;51.664;7.114;2023-09-08T16:59:48;26.30;57.00
16182;DHT22;8197;51.664;7.114;2023-09-08T17:04:51;26.20;57.50
16182;DHT22;8197;51.664;7.114;2023-09-08T17:09:55;26.20;58.10
16182;DHT22;8197;51.664;7.114;2023-09-08T17:14:58;26.20;58.10
16182;DHT22;8197;51.664;7.114;2023-09-08T17:20:01;26.10;58.40
16182;DHT22;8197;51.664;7.114;2023-09-08T17:25:06;26.10;58.70
16182;DHT22;8197;51.664;7.114;2023-09-08T17:30:09;26.10;58.90
16182;DHT22;8197;51.664;7.114;2023-09-08T17:35:12;26.00;59.40
16182;DHT22;8197;51.664;7.114;2023-09-08T17:40:17;26.00;59.70
16182;DHT22;8197;51.664;7.114;2023-09-08T17:45:20;26.00;60.00
16182;DHT22;8197;51.664;7.114;2023-09-08T17:50:23;25.90;60.50
16182;DHT22;8197;51.664;7.114;2023-09-08T17:55:27;25.80;60.90
16182;DHT22;8197;51.664;7.114;2023-09-08T18:00:30;25.80;61.60
16182;DHT22;8197;51.664;7.114;2023-09-08T18:05:33;25.80;61.70
16182;DHT22;8197;51.664;7.114;2023-09-08T18:10:38;25.80;62.10
16182;DHT22;8197;51.664;7.114;2023-09-08T18:15:40;25.80;62.50
16182;DHT22;8197;51.664;7.114;2023-09-08T18:20:43;25.70;63.10
16182;DHT22;8197;51.664;7.114;2023-09-08T18:25:48;25.70;63.70
16182;DHT22;8197;51.664;7.114;2023-09-08T18:30:51;25.70;63.80
16182;DHT22;8197;51.664;7.114;2023-09-08T18:35:55;25.60;64.20
16182;DHT22;8197;51.664;7.114;2023-09-08T18:40:59;25.60;65.00
16182;DHT22;8197;51.664;7.114;2023-09-08T18:46:02;25.50;65.50
16182;DHT22;8197;51.664;7.114;2023-09-08T18:51:05;25.50;65.50
16182;DHT22;8197;51.664;7.114;2023-09-08T18:56:09;25.50;65.60
16182;DHT22;8197;51.664;7.114;2023-09-08T19:01:12;25.40;66.10
16182;DHT22;8197;51.664;7.114;2023-09-08T19:06:15;25.40;66.40
16182;DHT22;8197;51.664;7.114;2023-09-08T19:11:20;25.40;66.60
16182;DHT22;8197;51.664;7.114;2023-09-08T19:16:23;25.50;66.60
16182;DHT22;8197;51.664;7.114;2023-09-08T19:21:26;25.50;66.30
16182;DHT22;8197;51.664;7.114;2023-09-08T19:26:30;25.50;66.70
16182;DHT22;8197;51.664;7.114;2023-09-08T19:31:33;25.40;67.10
16182;DHT22;8197;51.664;7.114;2023-09-08T19:36:37;25.40;67.30
16182;DHT22;8197;51.664;7.114;2023-09-08T19:41:42;25.50;67.10
16182;DHT22;8197;51.664;7.114;2023-09-08T19:46:45;25.50;67.20
16182;DHT22;8197;51.664;7.114;2023-09-08T19:51:48;25.50;68.20
16182;DHT22;8197;51.664;7.114;2023-09-08T19:56:52;25.50;67.00
16182;DHT22;8197;51.664;7.114;2023-09-08T20:01:55;25.40;67.40
16182;DHT22;8197;51.664;7.114;2023-09-08T20:06:58;25.30;67.80
16182;DHT22;8197;51.664;7.114;2023-09-08T20:12:03;25.30;67.90
16182;DHT22;8197;51.664;7.114;2023-09-08T20:17:06;25.40;68.10
16182;DHT22;8197;51.664;7.114;2023-09-08T20:22:09;25.40;67.80
16182;DHT22;8197;51.664;7.114;2023-09-08T20:27:14;25.30;67.70
16182;DHT22;8197;51.664;7.114;2023-09-08T20:32:17;25.30;67.80
16182;DHT22;8197;51.664;7.114;2023-09-08T20:37:20;25.30;67.80
16182;DHT22;8197;51.664;7.114;2023-09-08T20:42:24;25.30;69.00
16182;DHT22;8197;51.664;7.114;2023-09-08T20:47:27;25.30;68.20
16182;DHT22;8197;51.664;7.114;2023-09-08T20:52:30;25.10;68.20
16182;DHT22;8197;51.664;7.114;2023-09-08T20:57:35;25.10;68.40
16182;DHT22;8197;51.664;7.114;2023-09-08T21:02:37;25.10;68.40
16182;DHT22;8197;51.664;7.114;2023-09-08T21:07:40;25.20;69.40
16182;DHT22;8197;51.664;7.114;2023-09-08T21:12:45;25.10;70.40
16182;DHT22;8197;51.664;7.114;2023-09-08T21:17:48;25.00;68.90
16182;DHT22;8197;51.664;7.114;2023-09-08T21:22:51;25.00;69.10
16182;DHT22;8197;51.664;7.114;2023-09-08T21:27:55;25.00;69.30
16182;DHT22;8197;51.664;7.114;2023-09-08T21:32:58;24.80;70.80
16182;DHT22;8197;51.664;7.114;2023-09-08T21:38:01;24.70;71.40
16182;DHT22;8197;51.664;7.114;2023-09-08T21:43:05;24.70;71.10
16182;DHT22;8197;51.664;7.114;2023-09-08T21:48:08;24.60;71.30
16182;DHT22;8197;51.664;7.114;2023-09-08T21:53:11;24.50;71.80
16182;DHT22;8197;51.664;7.114;2023-09-08T21:58:16;24.40;72.20
16182;DHT22;8197;51.664;7.114;2023-09-08T22:03:19;24.30;72.40
16182;DHT22;8197;51.664;7.114;2023-09-08T22:08:22;24.20;72.50
16182;DHT22;8197;51.664;7.114;2023-09-08T22:13:26;24.20;72.40
16182;DHT22;8197;51.664;7.114;2023-09-08T22:18:29;24.20;72.50
16182;DHT22;8197;51.664;7.114;2023-09-08T22:23:33;24.10;72.80
16182;DHT22;8197;51.664;7.114;2023-09-08T22:28:38;24.00;73.20
16182;DHT22;8197;51.664;7.114;2023-09-08T22:33:42;24.00;72.80
16182;DHT22;8197;51.664;7.114;2023-09-08T22:38:45;24.00;72.60
16182;DHT22;8197;51.664;7.114;2023-09-08T22:43:50;24.10;72.40
16182;DHT22;8197;51.664;7.114;2023-09-08T22:48:52;24.00;72.20
16182;DHT22;8197;51.664;7.114;2023-09-08T22:53:55;24.00;72.10
16182;DHT22;8197;51.664;7.114;2023-09-08T22:59:00;24.00;72.50
16182;DHT22;8197;51.664;7.114;2023-09-08T23:04:04;23.80;72.80
16182;DHT22;8197;51.664;7.114;2023-09-08T23:09:07;23.80;72.80
16182;DHT22;8197;51.664;7.114;2023-09-08T23:14:11;23.70;72.80
16182;DHT22;8197;51.664;7.114;2023-09-08T23:19:14;23.70;72.80
16182;DHT22;8197;51.664;7.114;2023-09-08T23:24:17;23.70;72.80
16182;DHT22;8197;51.664;7.114;2023-09-08T23:29:22;23.70;72.40
16182;DHT22;8197;51.664;7.114;2023-09-08T23:34:24;23.70;72.20
16182;DHT22;8197;51.664;7.114;2023-09-08T23:39:27;23.60;72.60
16182;DHT22;8197;51.664;7.114;2023-09-08T23:44:32;23.60;72.60
16182;DHT22;8197;51.664;7.114;2023-09-08T23:49:35;23.50;72.80
16182;DHT22;8197;51.664;7.114;2023-09-08T23:54:37;23.50;72.60
16182;DHT22;8197;51.664;7.114;2023-09-08T23:59:42;23.40;72.60
